sensor_id;sensor_type;location;lat;lon;timestamp;pressure;altitude;pressure_sealevel;temperature;humidity
64064;BME280;50314;50.618;10.642;2024-03-29T00:01:08;95106.78;;;20.50;21.30
64064;BME280;50314;50.618;10.642;2024-03-29T00:03:34;95092.19;;;20.46;21.42
64064;BME280;50314;50.618;10.642;2024-03-29T00:05:59;95078.44;;;20.42;21.40
64064;BME280;50314;50.618;10.642;2024-03-29T00:08:26;95080.53;;;20.40;21.71
64064;BME280;50314;50.618;10.642;2024-03-29T00:10:51;95079.91;;;20.38;21.72
64064;BME280;50314;50.618;10.642;2024-03-29T00:13:17;95072.53;;;20.33;21.56
64064;BME280;50314;50.618;10.642;2024-03-29T00:15:45;95072.34;;;20.28;21.70
64064;BME280;50314;50.618;10.642;2024-03-29T00:18:11;95064.56;;;20.27;21.39
64064;BME280;50314;50.618;10.642;2024-03-29T00:20:36;95065.78;;;20.24;21.40
64064;BME280;50314;50.618;10.642;2024-03-29T00:23:02;95065.41;;;20.21;21.51
64064;BME280;50314;50.618;10.642;2024-03-29T00:25:27;95061.28;;;20.18;21.74
64064;BME280;50314;50.618;10.642;2024-03-29T00:27:52;95058.22;;;20.14;21.50
64064;BME280;50314;50.618;10.642;2024-03-29T00:30:18;95061.31;;;20.11;21.74
64064;BME280;50314;50.618;10.642;2024-03-29T00:32:43;95060.94;;;20.08;21.82
64064;BME280;50314;50.618;10.642;2024-03-29T00:35:09;95058.91;;;20.03;21.60
64064;BME280;50314;50.618;10.642;2024-03-29T00:37:34;95055.63;;;20.01;21.59
64064;BME280;50314;50.618;10.642;2024-03-29T00:40:00;95058.69;;;19.98;21.52
64064;BME280;50314;50.618;10.642;2024-03-29T00:42:26;95068.97;;;19.94;21.82
64064;BME280;50314;50.618;10.642;2024-03-29T00:44:54;95063.25;;;19.91;21.89
64064;BME280;50314;50.618;10.642;2024-03-29T00:47:19;95052.78;;;19.89;21.88
64064;BME280;50314;50.618;10.642;2024-03-29T00:49:45;95056.88;;;19.85;21.54
64064;BME280;50314;50.618;10.642;2024-03-29T00:52:10;95051.97;;;19.82;21.63
64064;BME280;50314;50.618;10.642;2024-03-29T00:54:36;95058.97;;;19.77;21.81
64064;BME280;50314;50.618;10.642;2024-03-29T00:57:01;95060.84;;;19.76;21.83
64064;BME280;50314;50.618;10.642;2024-03-29T00:59:27;95054.06;;;19.74;21.86
64064;BME280;50314;50.618;10.642;2024-03-29T01:01:52;95057.38;;;19.69;21.91
64064;BME280;50314;50.618;10.642;2024-03-29T01:04:18;95055.31;;;19.64;21.81
64064;BME280;50314;50.618;10.642;2024-03-29T01:06:43;95052.47;;;19.59;21.94
64064;BME280;50314;50.618;10.642;2024-03-29T01:09:09;95057.19;;;19.57;22.18
64064;BME280;50314;50.618;10.642;2024-03-29T01:11:38;95052.69;;;19.51;22.10
64064;BME280;50314;50.618;10.642;2024-03-29T01:14:05;95056.38;;;19.50;21.89
64064;BME280;50314;50.618;10.642;2024-03-29T01:16:31;95060.28;;;19.47;21.88
64064;BME280;50314;50.618;10.642;2024-03-29T01:18:57;95066.03;;;19.44;21.76
64064;BME280;50314;50.618;10.642;2024-03-29T01:21:23;95059.28;;;19.42;22.29
64064;BME280;50314;50.618;10.642;2024-03-29T01:23:49;95051.69;;;19.39;22.03
64064;BME280;50314;50.618;10.642;2024-03-29T01:26:14;95066.03;;;19.38;22.07
64064;BME280;50314;50.618;10.642;2024-03-29T01:28:42;95057.59;;;19.34;22.16
64064;BME280;50314;50.618;10.642;2024-03-29T01:31:08;95052.50;;;19.33;22.08
64064;BME280;50314;50.618;10.642;2024-03-29T01:33:33;95054.75;;;19.29;21.94
64064;BME280;50314;50.618;10.642;2024-03-29T01:36:05;95061.53;;;19.25;21.97
64064;BME280;50314;50.618;10.642;2024-03-29T01:38:31;95057.22;;;19.24;21.92
64064;BME280;50314;50.618;10.642;2024-03-29T01:40:57;95063.81;;;19.21;22.27
64064;BME280;50314;50.618;10.642;2024-03-29T01:43:22;95049.22;;;19.17;22.36
64064;BME280;50314;50.618;10.642;2024-03-29T01:45:49;95044.28;;;19.14;21.78
64064;BME280;50314;50.618;10.642;2024-03-29T01:48:17;95039.38;;;19.11;22.43
64064;BME280;50314;50.618;10.642;2024-03-29T01:50:44;95046.78;;;19.09;22.30
64064;BME280;50314;50.618;10.642;2024-03-29T01:53:11;95054.16;;;19.07;22.40
64064;BME280;50314;50.618;10.642;2024-03-29T01:55:37;95047.19;;;19.06;22.38
64064;BME280;50314;50.618;10.642;2024-03-29T01:58:02;95052.94;;;19.03;22.28
64064;BME280;50314;50.618;10.642;2024-03-29T02:00:29;95046.16;;;19.00;22.57
64064;BME280;50314;50.618;10.642;2024-03-29T02:02:56;95045.34;;;19.00;22.40
64064;BME280;50314;50.618;10.642;2024-03-29T02:05:22;95053.75;;;18.97;22.03
64064;BME280;50314;50.618;10.642;2024-03-29T02:07:48;95050.69;;;18.93;22.13
64064;BME280;50314;50.618;10.642;2024-03-29T02:10:14;95041.03;;;18.92;22.27
64064;BME280;50314;50.618;10.642;2024-03-29T02:12:40;95041.44;;;18.89;22.42
64064;BME280;50314;50.618;10.642;2024-03-29T02:15:05;95032.00;;;18.87;22.54
64064;BME280;50314;50.618;10.642;2024-03-29T02:17:34;95031.81;;;18.82;22.59
64064;BME280;50314;50.618;10.642;2024-03-29T02:19:59;95027.50;;;18.81;22.47
64064;BME280;50314;50.618;10.642;2024-03-29T02:22:27;95025.03;;;18.79;22.40
64064;BME280;50314;50.618;10.642;2024-03-29T02:24:53;95033.22;;;18.77;22.40
64064;BME280;50314;50.618;10.642;2024-03-29T02:27:20;95048.59;;;18.75;22.18
64064;BME280;50314;50.618;10.642;2024-03-29T02:29:46;95058.63;;;18.73;22.24
64064;BME280;50314;50.618;10.642;2024-03-29T02:32:12;95056.19;;;18.72;22.46
64064;BME280;50314;50.618;10.642;2024-03-29T02:34:37;95047.38;;;18.71;22.45
64064;BME280;50314;50.618;10.642;2024-03-29T02:37:03;95044.06;;;18.69;22.45
64064;BME280;50314;50.618;10.642;2024-03-29T02:39:28;95045.31;;;18.67;22.29
64064;BME280;50314;50.618;10.642;2024-03-29T02:41:54;95040.19;;;18.65;22.61
64064;BME280;50314;50.618;10.642;2024-03-29T02:44:19;95022.56;;;18.64;22.43
64064;BME280;50314;50.618;10.642;2024-03-29T02:46:45;95007.56;;;18.63;22.52
64064;BME280;50314;50.618;10.642;2024-03-29T02:49:10;94993.81;;;18.60;22.64
64064;BME280;50314;50.618;10.642;2024-03-29T02:51:36;95019.66;;;18.59;22.51
64064;BME280;50314;50.618;10.642;2024-03-29T02:54:01;95015.56;;;18.57;22.29
64064;BME280;50314;50.618;10.642;2024-03-29T02:56:27;95018.44;;;18.55;22.31
64064;BME280;50314;50.618;10.642;2024-03-29T02:58:53;95002.44;;;18.55;22.20
64064;BME280;50314;50.618;10.642;2024-03-29T03:01:18;94992.19;;;18.52;22.51
64064;BME280;50314;50.618;10.642;2024-03-29T03:03:44;94992.19;;;18.52;22.54
64064;BME280;50314;50.618;10.642;2024-03-29T03:06:10;94997.94;;;18.49;22.53
64064;BME280;50314;50.618;10.642;2024-03-29T03:08:35;94981.94;;;18.49;22.29
64064;BME280;50314;50.618;10.642;2024-03-29T03:11:19;94991.16;;;18.46;22.58
64064;BME280;50314;50.618;10.642;2024-03-29T03:13:45;94982.56;;;18.44;22.24
64064;BME280;50314;50.618;10.642;2024-03-29T03:16:10;94983.97;;;18.40;22.36
64064;BME280;50314;50.618;10.642;2024-03-29T03:18:36;94965.53;;;18.39;22.33
64064;BME280;50314;50.618;10.642;2024-03-29T03:21:01;94969.00;;;18.39;22.65
64064;BME280;50314;50.618;10.642;2024-03-29T03:23:28;94947.91;;;18.38;22.39
64064;BME280;50314;50.618;10.642;2024-03-29T03:26:00;94973.91;;;18.36;22.33
64064;BME280;50314;50.618;10.642;2024-03-29T03:28:26;94949.94;;;18.36;22.45
64064;BME280;50314;50.618;10.642;2024-03-29T03:30:53;94955.28;;;18.36;22.29
64064;BME280;50314;50.618;10.642;2024-03-29T03:33:19;94952.81;;;18.34;22.33
64064;BME280;50314;50.618;10.642;2024-03-29T03:35:45;94956.91;;;18.30;22.38
64064;BME280;50314;50.618;10.642;2024-03-29T03:38:11;94946.47;;;18.28;22.49
64064;BME280;50314;50.618;10.642;2024-03-29T03:40:37;94940.31;;;18.28;22.74
64064;BME280;50314;50.618;10.642;2024-03-29T03:43:04;94943.38;;;18.25;22.84
64064;BME280;50314;50.618;10.642;2024-03-29T03:45:39;94950.34;;;18.19;22.80
64064;BME280;50314;50.618;10.642;2024-03-29T03:48:07;94969.63;;;18.21;22.89
64064;BME280;50314;50.618;10.642;2024-03-29T03:50:33;94979.44;;;18.21;22.60
64064;BME280;50314;50.618;10.642;2024-03-29T03:52:59;94978.63;;;18.20;22.38
64064;BME280;50314;50.618;10.642;2024-03-29T03:55:24;94978.41;;;18.22;22.75
64064;BME280;50314;50.618;10.642;2024-03-29T03:57:50;94967.13;;;18.20;22.43
64064;BME280;50314;50.618;10.642;2024-03-29T04:00:18;94972.47;;;18.20;22.88
64064;BME280;50314;50.618;10.642;2024-03-29T04:02:47;94956.06;;;18.16;22.88
64064;BME280;50314;50.618;10.642;2024-03-29T04:05:13;94957.09;;;18.15;22.62
64064;BME280;50314;50.618;10.642;2024-03-29T04:07:39;94965.91;;;18.16;22.45
64064;BME280;50314;50.618;10.642;2024-03-29T04:10:04;94974.13;;;18.14;22.73
64064;BME280;50314;50.618;10.642;2024-03-29T04:12:30;94975.13;;;18.13;22.55
64064;BME280;50314;50.618;10.642;2024-03-29T04:14:55;94976.13;;;18.12;23.08
64064;BME280;50314;50.618;10.642;2024-03-29T04:17:23;94974.47;;;18.11;23.00
64064;BME280;50314;50.618;10.642;2024-03-29T04:19:48;94983.28;;;18.12;22.95
64064;BME280;50314;50.618;10.642;2024-03-29T04:22:14;94976.53;;;18.09;22.66
64064;BME280;50314;50.618;10.642;2024-03-29T04:24:39;94970.59;;;18.07;22.86
64064;BME280;50314;50.618;10.642;2024-03-29T04:27:05;94974.88;;;18.08;23.05
64064;BME280;50314;50.618;10.642;2024-03-29T04:29:30;94984.91;;;18.06;22.92
64064;BME280;50314;50.618;10.642;2024-03-29T04:31:56;94995.56;;;18.06;22.64
64064;BME280;50314;50.618;10.642;2024-03-29T04:34:21;95000.06;;;18.05;22.65
64064;BME280;50314;50.618;10.642;2024-03-29T04:36:46;94995.78;;;18.04;22.79
64064;BME280;50314;50.618;10.642;2024-03-29T04:39:12;95021.59;;;18.04;22.79
64064;BME280;50314;50.618;10.642;2024-03-29T04:41:37;95016.28;;;18.04;22.75
64064;BME280;50314;50.618;10.642;2024-03-29T04:44:03;95011.13;;;18.02;23.12
64064;BME280;50314;50.618;10.642;2024-03-29T04:46:30;95027.94;;;18.03;22.77
64064;BME280;50314;50.618;10.642;2024-03-29T04:48:56;95041.47;;;18.01;22.77
64064;BME280;50314;50.618;10.642;2024-03-29T04:51:21;95040.66;;;18.01;22.94
64064;BME280;50314;50.618;10.642;2024-03-29T04:53:47;95036.94;;;18.02;23.01
64064;BME280;50314;50.618;10.642;2024-03-29T04:56:12;95036.31;;;18.00;22.68
64064;BME280;50314;50.618;10.642;2024-03-29T04:58:38;95028.53;;;17.98;23.20
64064;BME280;50314;50.618;10.642;2024-03-29T05:01:03;95035.91;;;17.96;23.06
64064;BME280;50314;50.618;10.642;2024-03-29T05:03:29;95022.41;;;17.98;22.83
64064;BME280;50314;50.618;10.642;2024-03-29T05:05:56;95038.38;;;17.98;22.90
64064;BME280;50314;50.618;10.642;2024-03-29T05:08:21;95050.22;;;17.89;22.94
64064;BME280;50314;50.618;10.642;2024-03-29T05:10:51;95042.47;;;17.94;22.83
64064;BME280;50314;50.618;10.642;2024-03-29T05:13:17;95042.25;;;17.95;23.22
64064;BME280;50314;50.618;10.642;2024-03-29T05:15:45;95052.91;;;17.95;23.01
64064;BME280;50314;50.618;10.642;2024-03-29T05:18:10;95051.88;;;17.96;23.18
64064;BME280;50314;50.618;10.642;2024-03-29T05:20:36;95061.13;;;17.94;22.71
64064;BME280;50314;50.618;10.642;2024-03-29T05:23:01;95062.13;;;17.93;22.85
64064;BME280;50314;50.618;10.642;2024-03-29T05:25:27;95065.41;;;17.95;23.16
64064;BME280;50314;50.618;10.642;2024-03-29T05:27:53;95051.47;;;17.93;23.26
64064;BME280;50314;50.618;10.642;2024-03-29T05:30:19;95055.16;;;17.92;22.99
64064;BME280;50314;50.618;10.642;2024-03-29T05:32:44;95044.50;;;17.92;23.25
64064;BME280;50314;50.618;10.642;2024-03-29T05:35:10;95042.88;;;17.91;22.89
64064;BME280;50314;50.618;10.642;2024-03-29T05:37:36;95028.72;;;17.90;23.05
64064;BME280;50314;50.618;10.642;2024-03-29T05:40:02;95026.06;;;17.90;22.97
64064;BME280;50314;50.618;10.642;2024-03-29T05:42:32;95030.56;;;17.90;22.87
64064;BME280;50314;50.618;10.642;2024-03-29T05:44:59;95029.72;;;17.89;22.97
64064;BME280;50314;50.618;10.642;2024-03-29T05:47:24;95014.78;;;17.88;23.18
64064;BME280;50314;50.618;10.642;2024-03-29T05:49:50;95005.97;;;17.88;23.14
64064;BME280;50314;50.618;10.642;2024-03-29T05:52:16;94989.19;;;17.87;23.22
64064;BME280;50314;50.618;10.642;2024-03-29T05:54:46;94974.41;;;17.84;22.95
64064;BME280;50314;50.618;10.642;2024-03-29T05:57:12;94961.53;;;17.88;23.21
64064;BME280;50314;50.618;10.642;2024-03-29T05:59:38;94959.88;;;17.87;23.13
64064;BME280;50314;50.618;10.642;2024-03-29T06:02:04;94960.72;;;17.88;22.85
64064;BME280;50314;50.618;10.642;2024-03-29T06:04:30;94978.31;;;17.89;22.86
64064;BME280;50314;50.618;10.642;2024-03-29T06:07:02;94989.38;;;17.85;23.06
64064;BME280;50314;50.618;10.642;2024-03-29T06:09:29;94998.16;;;17.86;23.28
64064;BME280;50314;50.618;10.642;2024-03-29T06:11:55;95009.66;;;17.87;23.02
64064;BME280;50314;50.618;10.642;2024-03-29T06:14:22;95015.00;;;17.87;23.17
64064;BME280;50314;50.618;10.642;2024-03-29T06:17:07;95035.47;;;17.86;23.26
64064;BME280;50314;50.618;10.642;2024-03-29T06:19:52;95059.63;;;17.84;23.06
64064;BME280;50314;50.618;10.642;2024-03-29T06:22:24;95079.91;;;17.85;23.52
64064;BME280;50314;50.618;10.642;2024-03-29T06:24:51;95075.63;;;17.84;23.02
64064;BME280;50314;50.618;10.642;2024-03-29T06:27:17;95081.56;;;17.87;23.23
64064;BME280;50314;50.618;10.642;2024-03-29T06:29:46;95083.38;;;17.86;23.21
64064;BME280;50314;50.618;10.642;2024-03-29T06:32:11;95079.72;;;17.87;23.34
64064;BME280;50314;50.618;10.642;2024-03-29T06:34:37;95092.22;;;17.87;22.94
64064;BME280;50314;50.618;10.642;2024-03-29T06:37:03;95082.19;;;17.89;22.96
64064;BME280;50314;50.618;10.642;2024-03-29T06:39:28;95076.84;;;17.89;23.42
64064;BME280;50314;50.618;10.642;2024-03-29T06:41:54;95085.88;;;17.88;23.09
64064;BME280;50314;50.618;10.642;2024-03-29T06:44:19;95091.19;;;17.88;23.10
64064;BME280;50314;50.618;10.642;2024-03-29T06:46:48;95068.25;;;17.87;23.10
64064;BME280;50314;50.618;10.642;2024-03-29T06:49:14;95078.47;;;17.90;23.17
64064;BME280;50314;50.618;10.642;2024-03-29T06:51:40;95080.16;;;17.91;23.28
64064;BME280;50314;50.618;10.642;2024-03-29T06:54:06;95077.50;;;17.91;23.29
64064;BME280;50314;50.618;10.642;2024-03-29T06:56:32;95065.16;;;17.90;23.26
64064;BME280;50314;50.618;10.642;2024-03-29T06:58:58;95066.84;;;17.91;23.24
64064;BME280;50314;50.618;10.642;2024-03-29T07:01:23;95067.84;;;17.90;23.38
64064;BME280;50314;50.618;10.642;2024-03-29T07:03:49;95066.63;;;17.92;23.04
64064;BME280;50314;50.618;10.642;2024-03-29T07:06:14;95078.94;;;17.93;23.08
64064;BME280;50314;50.618;10.642;2024-03-29T07:08:40;95074.44;;;17.94;23.45
64064;BME280;50314;50.618;10.642;2024-03-29T07:11:05;95082.41;;;17.94;23.35
64064;BME280;50314;50.618;10.642;2024-03-29T07:13:31;95076.88;;;17.95;23.56
64064;BME280;50314;50.618;10.642;2024-03-29T07:15:58;95081.59;;;17.93;23.50
64064;BME280;50314;50.618;10.642;2024-03-29T07:18:23;95078.72;;;17.95;23.38
64064;BME280;50314;50.618;10.642;2024-03-29T07:20:49;95083.03;;;17.96;23.31
64064;BME280;50314;50.618;10.642;2024-03-29T07:23:15;95075.84;;;17.96;23.27
64064;BME280;50314;50.618;10.642;2024-03-29T07:25:44;95082.41;;;17.94;23.77
64064;BME280;50314;50.618;10.642;2024-03-29T07:28:10;95083.03;;;17.96;23.30
64064;BME280;50314;50.618;10.642;2024-03-29T07:30:40;95077.94;;;18.01;23.08
64064;BME280;50314;50.618;10.642;2024-03-29T07:33:06;95068.28;;;18.00;23.53
64064;BME280;50314;50.618;10.642;2024-03-29T07:35:31;95075.28;;;18.01;23.67
64064;BME280;50314;50.618;10.642;2024-03-29T07:37:57;95068.91;;;18.02;23.30
64064;BME280;50314;50.618;10.642;2024-03-29T07:40:22;95068.28;;;18.00;23.49
64064;BME280;50314;50.618;10.642;2024-03-29T07:42:47;95069.94;;;18.01;23.37
64064;BME280;50314;50.618;10.642;2024-03-29T07:45:13;95067.69;;;17.98;23.39
64064;BME280;50314;50.618;10.642;2024-03-29T07:47:38;95076.28;;;18.00;23.41
64064;BME280;50314;50.618;10.642;2024-03-29T07:50:04;95076.91;;;18.02;23.33
64064;BME280;50314;50.618;10.642;2024-03-29T07:52:32;95069.13;;;18.00;23.40
64064;BME280;50314;50.618;10.642;2024-03-29T07:54:58;95073.59;;;18.00;23.48
64064;BME280;50314;50.618;10.642;2024-03-29T07:57:25;95069.94;;;18.01;23.59
64064;BME280;50314;50.618;10.642;2024-03-29T07:59:50;95069.94;;;18.01;23.54
64064;BME280;50314;50.618;10.642;2024-03-29T08:02:16;95070.13;;;17.99;23.71
64064;BME280;50314;50.618;10.642;2024-03-29T08:04:41;95055.59;;;18.02;23.80
64064;BME280;50314;50.618;10.642;2024-03-29T08:07:08;95057.63;;;18.00;23.47
64064;BME280;50314;50.618;10.642;2024-03-29T08:09:33;95058.25;;;18.02;23.43
64064;BME280;50314;50.618;10.642;2024-03-29T08:11:59;95055.59;;;18.02;23.35
64064;BME280;50314;50.618;10.642;2024-03-29T08:14:25;95050.47;;;18.00;23.75
64064;BME280;50314;50.618;10.642;2024-03-29T08:16:53;95055.59;;;18.02;23.46
64064;BME280;50314;50.618;10.642;2024-03-29T08:19:19;95045.75;;;18.02;23.59
64064;BME280;50314;50.618;10.642;2024-03-29T08:21:45;95053.16;;;18.07;23.68
64064;BME280;50314;50.618;10.642;2024-03-29T08:24:10;95039.63;;;18.08;23.65
64064;BME280;50314;50.618;10.642;2024-03-29T08:26:36;95031.66;;;18.08;23.59
64064;BME280;50314;50.618;10.642;2024-03-29T08:29:02;95027.75;;;18.11;23.80
64064;BME280;50314;50.618;10.642;2024-03-29T08:31:28;95015.94;;;18.14;23.31
64064;BME280;50314;50.618;10.642;2024-03-29T08:33:53;95023.31;;;18.18;23.43
64064;BME280;50314;50.618;10.642;2024-03-29T08:36:19;95016.53;;;18.22;23.50
64064;BME280;50314;50.618;10.642;2024-03-29T08:38:44;95014.28;;;18.26;23.79
64064;BME280;50314;50.618;10.642;2024-03-29T08:41:11;95016.16;;;18.32;23.87
64064;BME280;50314;50.618;10.642;2024-03-29T08:43:37;95011.06;;;18.37;23.83
64064;BME280;50314;50.618;10.642;2024-03-29T08:46:03;95008.38;;;18.44;23.67
64064;BME280;50314;50.618;10.642;2024-03-29T08:48:29;95013.69;;;18.50;23.76
64064;BME280;50314;50.618;10.642;2024-03-29T08:50:54;95007.38;;;18.58;23.74
64064;BME280;50314;50.618;10.642;2024-03-29T08:53:20;95009.81;;;18.66;24.23
64064;BME280;50314;50.618;10.642;2024-03-29T08:55:47;95004.50;;;18.66;24.58
64064;BME280;50314;50.618;10.642;2024-03-29T08:58:13;95009.44;;;18.83;24.25
64064;BME280;50314;50.618;10.642;2024-03-29T09:00:39;94996.91;;;18.96;24.20
64064;BME280;50314;50.618;10.642;2024-03-29T09:03:05;94993.41;;;19.09;24.62
64064;BME280;50314;50.618;10.642;2024-03-29T09:05:30;94994.19;;;19.23;24.20
64064;BME280;50314;50.618;10.642;2024-03-29T09:07:56;94999.28;;;19.38;24.20
64064;BME280;50314;50.618;10.642;2024-03-29T09:10:23;94987.59;;;19.52;24.26
64064;BME280;50314;50.618;10.642;2024-03-29T09:12:49;94984.88;;;19.65;24.34
64064;BME280;50314;50.618;10.642;2024-03-29T09:15:15;94988.31;;;19.79;24.14
64064;BME280;50314;50.618;10.642;2024-03-29T09:17:44;94980.41;;;19.91;24.04
64064;BME280;50314;50.618;10.642;2024-03-29T09:20:10;94980.38;;;20.04;23.87
64064;BME280;50314;50.618;10.642;2024-03-29T09:22:36;94977.00;;;20.15;24.13
64064;BME280;50314;50.618;10.642;2024-03-29T09:25:03;94971.81;;;20.27;23.19
64064;BME280;50314;50.618;10.642;2024-03-29T09:27:29;94976.06;;;20.35;22.67
64064;BME280;50314;50.618;10.642;2024-03-29T09:29:55;94972.72;;;20.39;22.28
64064;BME280;50314;50.618;10.642;2024-03-29T09:32:23;94989.38;;;20.41;22.61
64064;BME280;50314;50.618;10.642;2024-03-29T09:34:49;94985.03;;;20.47;22.21
64064;BME280;50314;50.618;10.642;2024-03-29T09:37:15;94996.69;;;20.53;21.69
64064;BME280;50314;50.618;10.642;2024-03-29T09:39:40;94994.88;;;20.53;21.07
64064;BME280;50314;50.618;10.642;2024-03-29T09:42:07;95001.47;;;20.51;20.90
64064;BME280;50314;50.618;10.642;2024-03-29T09:44:34;95009.50;;;20.51;20.85
64064;BME280;50314;50.618;10.642;2024-03-29T09:47:03;95017.28;;;20.52;21.29
64064;BME280;50314;50.618;10.642;2024-03-29T09:49:32;95021.16;;;20.56;21.13
64064;BME280;50314;50.618;10.642;2024-03-29T09:52:01;95024.03;;;20.61;21.15
64064;BME280;50314;50.618;10.642;2024-03-29T09:54:30;95025.84;;;20.68;20.98
64064;BME280;50314;50.618;10.642;2024-03-29T09:56:56;95031.78;;;20.70;21.13
64064;BME280;50314;50.618;10.642;2024-03-29T09:59:23;95038.38;;;20.74;21.08
64064;BME280;50314;50.618;10.642;2024-03-29T10:01:50;95046.13;;;20.82;21.33
64064;BME280;50314;50.618;10.642;2024-03-29T10:04:17;95060.06;;;20.91;21.53
64064;BME280;50314;50.618;10.642;2024-03-29T10:06:46;95058.13;;;20.98;21.41
64064;BME280;50314;50.618;10.642;2024-03-29T10:09:18;95058.09;;;21.04;21.68
64064;BME280;50314;50.618;10.642;2024-03-29T10:11:44;95069.31;;;21.13;21.59
64064;BME280;50314;50.618;10.642;2024-03-29T10:14:09;95077.31;;;21.20;21.77
64064;BME280;50314;50.618;10.642;2024-03-29T10:16:35;95086.09;;;21.27;22.04
64064;BME280;50314;50.618;10.642;2024-03-29T10:19:00;95079.69;;;21.34;22.07
64064;BME280;50314;50.618;10.642;2024-03-29T10:21:26;95077.94;;;21.40;22.02
64064;BME280;50314;50.618;10.642;2024-03-29T10:23:52;95083.84;;;21.49;22.00
64064;BME280;50314;50.618;10.642;2024-03-29T10:26:17;95088.34;;;21.55;22.29
64064;BME280;50314;50.618;10.642;2024-03-29T10:28:43;95095.88;;;21.65;21.70
64064;BME280;50314;50.618;10.642;2024-03-29T10:31:09;95099.88;;;21.74;21.99
64064;BME280;50314;50.618;10.642;2024-03-29T10:33:34;95105.78;;;21.83;21.77
64064;BME280;50314;50.618;10.642;2024-03-29T10:36:02;95105.28;;;21.92;22.32
64064;BME280;50314;50.618;10.642;2024-03-29T10:38:30;95107.44;;;22.02;22.28
64064;BME280;50314;50.618;10.642;2024-03-29T10:40:56;95090.00;;;22.11;21.92
64064;BME280;50314;50.618;10.642;2024-03-29T10:43:22;95096.69;;;22.20;21.80
64064;BME280;50314;50.618;10.642;2024-03-29T10:45:49;95105.00;;;22.31;21.74
64064;BME280;50314;50.618;10.642;2024-03-29T10:48:16;95110.56;;;22.36;21.71
64064;BME280;50314;50.618;10.642;2024-03-29T10:50:43;95128.19;;;22.43;21.51
64064;BME280;50314;50.618;10.642;2024-03-29T10:53:09;95111.22;;;22.49;22.00
64064;BME280;50314;50.618;10.642;2024-03-29T10:55:37;95129.66;;;22.58;21.92
64064;BME280;50314;50.618;10.642;2024-03-29T10:58:04;95108.91;;;22.65;21.46
64064;BME280;50314;50.618;10.642;2024-03-29T11:00:38;95120.00;;;22.68;21.75
64064;BME280;50314;50.618;10.642;2024-03-29T11:06:02;95122.88;;;22.85;21.49
64064;BME280;50314;50.618;10.642;2024-03-29T11:08:33;95124.22;;;22.94;21.31
64064;BME280;50314;50.618;10.642;2024-03-29T11:11:05;95129.25;;;23.03;21.36
64064;BME280;50314;50.618;10.642;2024-03-29T11:16:06;95127.41;;;23.15;21.23
64064;BME280;50314;50.618;10.642;2024-03-29T11:18:32;95119.81;;;23.12;20.94
64064;BME280;50314;50.618;10.642;2024-03-29T11:20:58;95130.59;;;23.24;21.03
64064;BME280;50314;50.618;10.642;2024-03-29T11:23:26;95126.13;;;23.29;20.90
64064;BME280;50314;50.618;10.642;2024-03-29T11:25:54;95128.16;;;23.34;20.55
64064;BME280;50314;50.618;10.642;2024-03-29T11:28:25;95133.28;;;23.35;20.87
64064;BME280;50314;50.618;10.642;2024-03-29T11:30:52;95134.22;;;23.41;20.42
64064;BME280;50314;50.618;10.642;2024-03-29T11:36:15;95125.13;;;23.42;20.31
64064;BME280;50314;50.618;10.642;2024-03-29T11:38:41;95119.66;;;23.49;20.48
64064;BME280;50314;50.618;10.642;2024-03-29T11:41:18;95113.69;;;23.47;20.54
64064;BME280;50314;50.618;10.642;2024-03-29T11:43:47;95120.59;;;23.54;20.34
64064;BME280;50314;50.618;10.642;2024-03-29T11:46:13;95125.72;;;23.56;20.44
64064;BME280;50314;50.618;10.642;2024-03-29T11:48:39;95112.88;;;23.58;20.62
64064;BME280;50314;50.618;10.642;2024-03-29T11:51:07;95111.81;;;23.59;20.28
64064;BME280;50314;50.618;10.642;2024-03-29T11:53:34;95116.13;;;23.60;20.43
64064;BME280;50314;50.618;10.642;2024-03-29T11:56:02;95101.66;;;23.61;20.19
64064;BME280;50314;50.618;10.642;2024-03-29T11:58:30;95098.72;;;23.62;20.07
64064;BME280;50314;50.618;10.642;2024-03-29T12:00:56;95096.84;;;23.63;20.67
64064;BME280;50314;50.618;10.642;2024-03-29T12:03:23;95100.25;;;23.58;20.75
64064;BME280;50314;50.618;10.642;2024-03-29T12:05:50;95098.88;;;23.67;20.58
64064;BME280;50314;50.618;10.642;2024-03-29T12:08:16;95101.91;;;23.71;20.26
64064;BME280;50314;50.618;10.642;2024-03-29T12:10:41;95070.81;;;23.75;20.80
64064;BME280;50314;50.618;10.642;2024-03-29T12:13:07;95071.16;;;23.79;20.53
64064;BME280;50314;50.618;10.642;2024-03-29T12:15:34;95073.38;;;23.82;20.75
64064;BME280;50314;50.618;10.642;2024-03-29T12:18:09;95055.59;;;23.81;21.04
64064;BME280;50314;50.618;10.642;2024-03-29T12:20:38;95046.56;;;23.87;20.52
64064;BME280;50314;50.618;10.642;2024-03-29T12:23:09;95037.22;;;23.89;20.78
64064;BME280;50314;50.618;10.642;2024-03-29T12:25:36;95044.81;;;23.92;20.55
64064;BME280;50314;50.618;10.642;2024-03-29T12:28:02;95051.38;;;23.97;20.39
64064;BME280;50314;50.618;10.642;2024-03-29T12:30:28;95036.91;;;23.98;20.54
64064;BME280;50314;50.618;10.642;2024-03-29T12:33:04;95046.00;;;23.97;20.71
64064;BME280;50314;50.618;10.642;2024-03-29T12:35:32;95036.97;;;24.03;20.76
64064;BME280;50314;50.618;10.642;2024-03-29T12:38:04;95040.16;;;24.00;20.50
64064;BME280;50314;50.618;10.642;2024-03-29T12:40:32;95038.59;;;24.04;20.76
64064;BME280;50314;50.618;10.642;2024-03-29T12:43:02;95029.50;;;24.05;20.08
64064;BME280;50314;50.618;10.642;2024-03-29T12:45:28;95031.13;;;24.06;20.58
64064;BME280;50314;50.618;10.642;2024-03-29T12:47:54;95023.88;;;24.06;20.59
64064;BME280;50314;50.618;10.642;2024-03-29T12:52:53;95026.34;;;24.08;20.45
64064;BME280;50314;50.618;10.642;2024-03-29T12:55:19;95027.16;;;24.08;20.22
64064;BME280;50314;50.618;10.642;2024-03-29T12:57:44;95020.72;;;24.09;20.41